Troutman, North Carolina
Current Conditions -  °F | °C
As of 2:55 PM on Saturday 25 Oct 2014 (Local Time) from KSVH Reporting Station
Clear Clear  
Wind Chill: 72°   Ceiling: Unl
Heat Index: 72°   Visibility: 10mi
Dew Point: 34°   Wind: 6mph
Humidity: 25%   Direction: 220°SW
Pressure: 29.95"   Gusts: NA
Location:  35.7°N, 80.89°W
Report Text: KSVH 251855Z AUTO 22005KT 10SM CLR 22/01 A2995 RMK AO2 T02200012
Loading
Personal Weather Stations






























Interactive Weather Map
Tropical Storm Tracking
New forecast layout! Learn more

10-Day Weather Forecast

Advertisements
Track Severe Weather on mobile